DLH2FF EDDF-LIMC
Flight info
| Callsign | DLH2FF |
|---|---|
| Flight time | 0h 53m |
| Altitude | 33000 |
| Route | ANEKI2L/18 ANEKI Y163 NATOR DCT DITON DCT BASGO Z424 RIXUV RIXUV3E |
| Aircraft | A320/M-SDE3FGHIRWY/LB1 |
Departure
| Time | 2026-05-04 19:53 |
|---|---|
| Airport | Frankfurt Main Airport (EDDF) |
Arrival
| Time | 2026-05-04 20:46 |
|---|---|
| Airport | Milan Malpensa International Airport (LIMC) |
| Time | Latitude | Longitude | Altitude | Speed | Heading |
|---|---|---|---|---|---|
| 2026-05-04 19:11 | 50.04687 | 8.56701 | 356 ft | 0 kts | 115° |
| 2026-05-04 19:34 | 50.04687 | 8.56700 | 356 ft | 0 kts | 115° |
| 2026-05-04 19:34 | 50.04687 | 8.56701 | 356 ft | 0 kts | 115° |
| 2026-05-04 19:35 | 50.04687 | 8.56700 | 356 ft | 0 kts | 115° |
| 2026-05-04 19:35 | 50.04687 | 8.56701 | 356 ft | 0 kts | 115° |
| 2026-05-04 19:37 | 50.04689 | 8.56692 | 362 ft | 2 kts | 115° |
| 2026-05-04 19:37 | 50.04712 | 8.56637 | 357 ft | 7 kts | 172° |
| 2026-05-04 19:38 | 50.04759 | 8.56661 | 364 ft | 7 kts | 203° |
| 2026-05-04 19:38 | 50.04768 | 8.56666 | 364 ft | 0 kts | 203° |
| 2026-05-04 19:41 | 50.04755 | 8.56654 | 361 ft | 7 kts | 219° |
| 2026-05-04 19:42 | 50.04677 | 8.56479 | 360 ft | 29 kts | 246° |
| 2026-05-04 19:42 | 50.04610 | 8.56193 | 361 ft | 29 kts | 250° |
| 2026-05-04 19:42 | 50.04537 | 8.55972 | 360 ft | 12 kts | 208° |
| 2026-05-04 19:42 | 50.04463 | 8.55924 | 357 ft | 10 kts | 196° |
| 2026-05-04 19:43 | 50.04389 | 8.55911 | 356 ft | 16 kts | 175° |
| 2026-05-04 19:43 | 50.04305 | 8.55951 | 356 ft | 11 kts | 160° |
| 2026-05-04 19:43 | 50.04237 | 8.55922 | 360 ft | 12 kts | 237° |
| 2026-05-04 19:43 | 50.04199 | 8.55783 | 356 ft | 15 kts | 250° |
| 2026-05-04 19:44 | 50.04162 | 8.55624 | 361 ft | 17 kts | 251° |
| 2026-05-04 19:44 | 50.04120 | 8.55443 | 357 ft | 18 kts | 250° |
| 2026-05-04 19:44 | 50.04073 | 8.55249 | 357 ft | 20 kts | 249° |
| 2026-05-04 19:44 | 50.04023 | 8.55038 | 361 ft | 21 kts | 250° |
| 2026-05-04 19:45 | 50.03969 | 8.54808 | 356 ft | 24 kts | 249° |
| 2026-05-04 19:45 | 50.03931 | 8.54653 | 356 ft | 8 kts | 250° |
| 2026-05-04 19:45 | 50.03927 | 8.54634 | 352 ft | 2 kts | 250° |
| 2026-05-04 19:45 | 50.03919 | 8.54602 | 354 ft | 7 kts | 250° |
| 2026-05-04 19:46 | 50.03895 | 8.54503 | 353 ft | 11 kts | 249° |
| 2026-05-04 19:46 | 50.03880 | 8.54439 | 356 ft | 2 kts | 249° |
| 2026-05-04 19:46 | 50.03873 | 8.54412 | 352 ft | 4 kts | 246° |
| 2026-05-04 19:46 | 50.03836 | 8.54316 | 351 ft | 16 kts | 236° |
| 2026-05-04 19:47 | 50.03783 | 8.54157 | 351 ft | 17 kts | 249° |
| 2026-05-04 19:47 | 50.03740 | 8.53974 | 344 ft | 19 kts | 249° |
| 2026-05-04 19:47 | 50.03691 | 8.53772 | 347 ft | 21 kts | 250° |
| 2026-05-04 19:47 | 50.03639 | 8.53553 | 339 ft | 22 kts | 249° |
| 2026-05-04 19:48 | 50.03582 | 8.53321 | 336 ft | 24 kts | 249° |
| 2026-05-04 19:48 | 50.03524 | 8.53076 | 337 ft | 25 kts | 250° |
| 2026-05-04 19:48 | 50.03472 | 8.52870 | 333 ft | 13 kts | 246° |
| 2026-05-04 19:48 | 50.03440 | 8.52751 | 333 ft | 4 kts | 248° |
| 2026-05-04 19:49 | 50.03434 | 8.52731 | 334 ft | 0 kts | 248° |
| 2026-05-04 19:50 | 50.03423 | 8.52689 | 333 ft | 4 kts | 248° |
| 2026-05-04 19:51 | 50.03398 | 8.52608 | 333 ft | 12 kts | 228° |
| 2026-05-04 19:51 | 50.03359 | 8.52593 | 334 ft | 0 kts | 178° |
| 2026-05-04 19:52 | 50.03357 | 8.52593 | 334 ft | 2 kts | 178° |
| 2026-05-04 19:52 | 50.03142 | 8.52595 | 332 ft | 68 kts | 180° |
| 2026-05-04 19:52 | 50.02448 | 8.52599 | 335 ft | 129 kts | 179° |
| 2026-05-04 19:52 | 50.01386 | 8.52608 | 334 ft | 174 kts | 177° |
| 2026-05-04 19:53 | 50.00151 | 8.52661 | 910 ft | 178 kts | 180° |
| 2026-05-04 19:53 | 49.98911 | 8.52717 | 1611 ft | 179 kts | 178° |
| 2026-05-04 19:53 | 49.97657 | 8.52801 | 2293 ft | 180 kts | 177° |
| 2026-05-04 19:53 | 49.96374 | 8.52919 | 2815 ft | 192 kts | 176° |
| 2026-05-04 19:54 | 49.94970 | 8.53039 | 3208 ft | 213 kts | 178° |
| 2026-05-04 19:54 | 49.93423 | 8.53142 | 3709 ft | 229 kts | 178° |
| 2026-05-04 19:54 | 49.91820 | 8.53243 | 4524 ft | 232 kts | 178° |
| 2026-05-04 19:54 | 49.90207 | 8.53348 | 5394 ft | 232 kts | 178° |
| 2026-05-04 19:55 | 49.88588 | 8.53458 | 6012 ft | 234 kts | 178° |
| 2026-05-04 19:55 | 49.86915 | 8.53572 | 6623 ft | 247 kts | 178° |
| 2026-05-04 19:55 | 49.85147 | 8.53688 | 7222 ft | 261 kts | 179° |
| 2026-05-04 19:55 | 49.83293 | 8.53809 | 7827 ft | 273 kts | 179° |
| 2026-05-04 19:56 | 49.81348 | 8.53934 | 8446 ft | 286 kts | 179° |
| 2026-05-04 19:56 | 49.79319 | 8.54066 | 9073 ft | 298 kts | 179° |
| 2026-05-04 19:56 | 49.77214 | 8.54035 | 9705 ft | 308 kts | 185° |
| 2026-05-04 19:56 | 49.75039 | 8.53768 | 10309 ft | 318 kts | 186° |
| 2026-05-04 19:57 | 49.72797 | 8.53471 | 10913 ft | 328 kts | 186° |
| 2026-05-04 19:57 | 49.70493 | 8.53156 | 11513 ft | 336 kts | 186° |
| 2026-05-04 19:57 | 49.68145 | 8.52837 | 12121 ft | 341 kts | 186° |
| 2026-05-04 19:57 | 49.65766 | 8.52514 | 12725 ft | 346 kts | 186° |
| 2026-05-04 19:58 | 49.63365 | 8.52191 | 12950 ft | 348 kts | 186° |
| 2026-05-04 19:58 | 49.60951 | 8.51871 | 12996 ft | 348 kts | 186° |
| 2026-05-04 19:58 | 49.58537 | 8.51550 | 12998 ft | 348 kts | 186° |
| 2026-05-04 19:58 | 49.56123 | 8.51231 | 13000 ft | 348 kts | 186° |
| 2026-05-04 19:59 | 49.53707 | 8.50913 | 13002 ft | 349 kts | 186° |
| 2026-05-04 19:59 | 49.51300 | 8.50598 | 13288 ft | 346 kts | 186° |
| 2026-05-04 19:59 | 49.48879 | 8.50281 | 13941 ft | 351 kts | 186° |
| 2026-05-04 19:59 | 49.46430 | 8.49960 | 14574 ft | 356 kts | 186° |
| 2026-05-04 20:00 | 49.43934 | 8.49632 | 15310 ft | 363 kts | 186° |
| 2026-05-04 20:00 | 49.41404 | 8.49300 | 16189 ft | 367 kts | 186° |
| 2026-05-04 20:00 | 49.38849 | 8.48966 | 17116 ft | 369 kts | 186° |
| 2026-05-04 20:00 | 49.36292 | 8.48630 | 18069 ft | 369 kts | 186° |
| 2026-05-04 20:01 | 49.33736 | 8.48296 | 18937 ft | 369 kts | 186° |
| 2026-05-04 20:01 | 49.31215 | 8.47967 | 19790 ft | 367 kts | 186° |
| 2026-05-04 20:01 | 49.28643 | 8.47633 | 20695 ft | 365 kts | 186° |
| 2026-05-04 20:01 | 49.26115 | 8.47308 | 21611 ft | 362 kts | 186° |
| 2026-05-04 20:02 | 49.23620 | 8.46989 | 22559 ft | 358 kts | 186° |
| 2026-05-04 20:02 | 49.21153 | 8.46671 | 23530 ft | 353 kts | 186° |
| 2026-05-04 20:02 | 49.18754 | 8.46362 | 24365 ft | 347 kts | 187° |
| 2026-05-04 20:02 | 49.16376 | 8.46056 | 25219 ft | 338 kts | 187° |
| 2026-05-04 20:03 | 49.14068 | 8.45759 | 26096 ft | 327 kts | 187° |
| 2026-05-04 20:03 | 49.11816 | 8.45468 | 27020 ft | 314 kts | 187° |
| 2026-05-04 20:03 | 49.09675 | 8.45191 | 27741 ft | 309 kts | 187° |
| 2026-05-04 20:03 | 49.07557 | 8.44914 | 28166 ft | 310 kts | 187° |
| 2026-05-04 20:04 | 49.05424 | 8.44436 | 28607 ft | 310 kts | 194° |
| 2026-05-04 20:04 | 49.03292 | 8.43688 | 29049 ft | 311 kts | 194° |
| 2026-05-04 20:04 | 49.01184 | 8.42949 | 29497 ft | 311 kts | 194° |
| 2026-05-04 20:04 | 48.99074 | 8.42216 | 29947 ft | 311 kts | 194° |
| 2026-05-04 20:05 | 48.96959 | 8.41483 | 30313 ft | 313 kts | 194° |
| 2026-05-04 20:05 | 48.94830 | 8.40743 | 30639 ft | 314 kts | 194° |
| 2026-05-04 20:05 | 48.92692 | 8.39998 | 30965 ft | 316 kts | 194° |
| 2026-05-04 20:05 | 48.90542 | 8.39248 | 31281 ft | 318 kts | 194° |
| 2026-05-04 20:06 | 48.88378 | 8.38496 | 31596 ft | 320 kts | 194° |
| 2026-05-04 20:06 | 48.86203 | 8.37740 | 31914 ft | 322 kts | 194° |
| 2026-05-04 20:06 | 48.83994 | 8.36975 | 32021 ft | 330 kts | 194° |
| 2026-05-04 20:06 | 48.81721 | 8.36189 | 32076 ft | 341 kts | 194° |
| 2026-05-04 20:07 | 48.79362 | 8.35770 | 32143 ft | 351 kts | 185° |
| 2026-05-04 20:07 | 48.76963 | 8.35615 | 32781 ft | 344 kts | 185° |
| 2026-05-04 20:07 | 48.74520 | 8.35467 | 32949 ft | 351 kts | 185° |
| 2026-05-04 20:08 | 48.69547 | 8.35178 | 32989 ft | 370 kts | 185° |
| 2026-05-04 20:08 | 48.64273 | 8.34880 | 32988 ft | 389 kts | 185° |
| 2026-05-04 20:08 | 48.61541 | 8.34724 | 32676 ft | 397 kts | 182° |
| 2026-05-04 20:09 | 48.58762 | 8.34565 | 32854 ft | 402 kts | 182° |
| 2026-05-04 20:09 | 48.55945 | 8.34400 | 33003 ft | 408 kts | 182° |
| 2026-05-04 20:09 | 48.53075 | 8.34230 | 33011 ft | 418 kts | 182° |
| 2026-05-04 20:10 | 48.47131 | 8.33879 | 33010 ft | 437 kts | 182° |
| 2026-05-04 20:10 | 48.40914 | 8.33512 | 33010 ft | 456 kts | 182° |
| 2026-05-04 20:11 | 48.34459 | 8.33131 | 33009 ft | 472 kts | 182° |
| 2026-05-04 20:11 | 48.27796 | 8.32745 | 33010 ft | 487 kts | 182° |
| 2026-05-04 20:12 | 48.20943 | 8.32358 | 33004 ft | 497 kts | 182° |
| 2026-05-04 20:12 | 48.13978 | 8.32844 | 33008 ft | 507 kts | 171° |
| 2026-05-04 20:13 | 48.06947 | 8.34563 | 33008 ft | 515 kts | 171° |
| 2026-05-04 20:13 | 47.99869 | 8.36274 | 33009 ft | 516 kts | 171° |
| 2026-05-04 20:14 | 47.92785 | 8.37970 | 33009 ft | 515 kts | 171° |
| 2026-05-04 20:14 | 47.85823 | 8.39647 | 33007 ft | 515 kts | 171° |
| 2026-05-04 20:15 | 47.78728 | 8.41062 | 33000 ft | 513 kts | 181° |
| 2026-05-04 20:15 | 47.71640 | 8.40079 | 33003 ft | 512 kts | 187° |
| 2026-05-04 20:16 | 47.64557 | 8.38925 | 33012 ft | 512 kts | 187° |
| 2026-05-04 20:16 | 47.57480 | 8.37759 | 33016 ft | 512 kts | 187° |
| 2026-05-04 20:17 | 47.50404 | 8.36602 | 33017 ft | 512 kts | 187° |
| 2026-05-04 20:17 | 47.43324 | 8.35454 | 33013 ft | 511 kts | 187° |
| 2026-05-04 20:18 | 47.36254 | 8.34309 | 33008 ft | 511 kts | 187° |
| 2026-05-04 20:18 | 47.29162 | 8.33533 | 33008 ft | 512 kts | 178° |
| 2026-05-04 20:19 | 47.22062 | 8.34451 | 33005 ft | 512 kts | 175° |
| 2026-05-04 20:19 | 47.14964 | 8.35423 | 33000 ft | 512 kts | 175° |
| 2026-05-04 20:20 | 47.07862 | 8.36393 | 33000 ft | 512 kts | 175° |
| 2026-05-04 20:20 | 47.00771 | 8.37358 | 32999 ft | 512 kts | 175° |
| 2026-05-04 20:21 | 46.93678 | 8.38326 | 32995 ft | 512 kts | 175° |
| 2026-05-04 20:21 | 46.84225 | 8.39601 | 32982 ft | 513 kts | 175° |
| 2026-05-04 20:22 | 46.77097 | 8.40557 | 32982 ft | 516 kts | 175° |
| 2026-05-04 20:22 | 46.69908 | 8.41528 | 33007 ft | 523 kts | 175° |
| 2026-05-04 20:23 | 46.62615 | 8.42515 | 33008 ft | 529 kts | 175° |
| 2026-05-04 20:23 | 46.55304 | 8.43502 | 32376 ft | 519 kts | 175° |
| 2026-05-04 20:24 | 46.51742 | 8.43980 | 31669 ft | 515 kts | 175° |
| 2026-05-04 20:24 | 46.48142 | 8.44460 | 30975 ft | 524 kts | 175° |
| 2026-05-04 20:24 | 46.44478 | 8.44946 | 30276 ft | 533 kts | 175° |
| 2026-05-04 20:24 | 46.40796 | 8.45435 | 29569 ft | 526 kts | 175° |
| 2026-05-04 20:25 | 46.37206 | 8.45913 | 28865 ft | 511 kts | 175° |
| 2026-05-04 20:25 | 46.33703 | 8.46374 | 28166 ft | 507 kts | 175° |
| 2026-05-04 20:25 | 46.30154 | 8.46840 | 27464 ft | 517 kts | 175° |
| 2026-05-04 20:25 | 46.26539 | 8.47318 | 26765 ft | 527 kts | 175° |
| 2026-05-04 20:26 | 46.22864 | 8.47822 | 26055 ft | 534 kts | 175° |
| 2026-05-04 20:26 | 46.19157 | 8.48351 | 25349 ft | 531 kts | 174° |
| 2026-05-04 20:26 | 46.15561 | 8.48877 | 24639 ft | 508 kts | 174° |
| 2026-05-04 20:26 | 46.12106 | 8.49448 | 23924 ft | 490 kts | 170° |
| 2026-05-04 20:27 | 46.08874 | 8.50686 | 23166 ft | 473 kts | 159° |
| 2026-05-04 20:27 | 46.05840 | 8.52325 | 22430 ft | 460 kts | 159° |
| 2026-05-04 20:27 | 46.02860 | 8.53931 | 21673 ft | 462 kts | 159° |
| 2026-05-04 20:27 | 45.99783 | 8.55590 | 20929 ft | 482 kts | 159° |
| 2026-05-04 20:28 | 45.96594 | 8.57305 | 20161 ft | 497 kts | 159° |
| 2026-05-04 20:28 | 45.93499 | 8.58964 | 19433 ft | 490 kts | 159° |
| 2026-05-04 20:28 | 45.90405 | 8.60748 | 18678 ft | 468 kts | 151° |
| 2026-05-04 20:28 | 45.87755 | 8.63266 | 17938 ft | 448 kts | 139° |
| 2026-05-04 20:29 | 45.85366 | 8.66009 | 17190 ft | 433 kts | 139° |
| 2026-05-04 20:29 | 45.83058 | 8.68680 | 16439 ft | 421 kts | 138° |
| 2026-05-04 20:29 | 45.80792 | 8.71316 | 15699 ft | 428 kts | 138° |
| 2026-05-04 20:29 | 45.78420 | 8.74081 | 14939 ft | 444 kts | 138° |
| 2026-05-04 20:30 | 45.75945 | 8.76740 | 14179 ft | 447 kts | 147° |
| 2026-05-04 20:30 | 45.73226 | 8.78894 | 13429 ft | 446 kts | 150° |
| 2026-05-04 20:30 | 45.70498 | 8.81002 | 12672 ft | 445 kts | 150° |
| 2026-05-04 20:30 | 45.67777 | 8.83087 | 11925 ft | 443 kts | 150° |
| 2026-05-04 20:31 | 45.65068 | 8.85155 | 11273 ft | 438 kts | 150° |
| 2026-05-04 20:31 | 45.62414 | 8.87173 | 11200 ft | 417 kts | 154° |
| 2026-05-04 20:31 | 45.59914 | 8.88987 | 10832 ft | 401 kts | 158° |
| 2026-05-04 20:31 | 45.57384 | 8.90190 | 10347 ft | 367 kts | 169° |
| 2026-05-04 20:32 | 45.54914 | 8.90697 | 10092 ft | 347 kts | 175° |
| 2026-05-04 20:32 | 45.52549 | 8.90950 | 9732 ft | 337 kts | 176° |
| 2026-05-04 20:32 | 45.50222 | 8.91208 | 9364 ft | 334 kts | 175° |
| 2026-05-04 20:32 | 45.47912 | 8.91575 | 9028 ft | 334 kts | 173° |
| 2026-05-04 20:33 | 45.45609 | 8.92061 | 8695 ft | 334 kts | 171° |
| 2026-05-04 20:33 | 45.43359 | 8.92624 | 8368 ft | 324 kts | 170° |
| 2026-05-04 20:33 | 45.41203 | 8.93209 | 8031 ft | 313 kts | 169° |
| 2026-05-04 20:33 | 45.39134 | 8.93786 | 7679 ft | 294 kts | 169° |
| 2026-05-04 20:34 | 45.37150 | 8.94341 | 7244 ft | 280 kts | 169° |
| 2026-05-04 20:34 | 45.35281 | 8.94862 | 6829 ft | 268 kts | 169° |
| 2026-05-04 20:34 | 45.33510 | 8.95351 | 6422 ft | 258 kts | 169° |
| 2026-05-04 20:34 | 45.31754 | 8.95833 | 5976 ft | 250 kts | 169° |
| 2026-05-04 20:35 | 45.30093 | 8.96287 | 5551 ft | 243 kts | 169° |
| 2026-05-04 20:35 | 45.28454 | 8.96736 | 5125 ft | 237 kts | 169° |
| 2026-05-04 20:35 | 45.26831 | 8.97177 | 4706 ft | 233 kts | 169° |
| 2026-05-04 20:35 | 45.25241 | 8.97606 | 4269 ft | 232 kts | 172° |
| 2026-05-04 20:36 | 45.23665 | 8.97550 | 4027 ft | 226 kts | 197° |
| 2026-05-04 20:36 | 45.22301 | 8.96541 | 4021 ft | 215 kts | 223° |
| 2026-05-04 20:36 | 45.21444 | 8.94882 | 4023 ft | 208 kts | 248° |
| 2026-05-04 20:36 | 45.21173 | 8.92883 | 4032 ft | 208 kts | 272° |
| 2026-05-04 20:37 | 45.21518 | 8.90929 | 4030 ft | 209 kts | 297° |
| 2026-05-04 20:37 | 45.22450 | 8.89313 | 4027 ft | 213 kts | 321° |
| 2026-05-04 20:37 | 45.23632 | 8.88008 | 4027 ft | 221 kts | 321° |
| 2026-05-04 20:37 | 45.24845 | 8.86652 | 4029 ft | 223 kts | 320° |
| 2026-05-04 20:38 | 45.26062 | 8.85283 | 4007 ft | 223 kts | 320° |
| 2026-05-04 20:38 | 45.27276 | 8.83915 | 4009 ft | 223 kts | 320° |
| 2026-05-04 20:38 | 45.28609 | 8.82808 | 4009 ft | 224 kts | 343° |
| 2026-05-04 20:38 | 45.30088 | 8.82373 | 4006 ft | 212 kts | 348° |
| 2026-05-04 20:39 | 45.31515 | 8.81996 | 4026 ft | 205 kts | 348° |
| 2026-05-04 20:39 | 45.32907 | 8.81620 | 4010 ft | 202 kts | 348° |
| 2026-05-04 20:39 | 45.34277 | 8.81246 | 4007 ft | 199 kts | 348° |
| 2026-05-04 20:39 | 45.35628 | 8.80877 | 4009 ft | 197 kts | 348° |
| 2026-05-04 20:40 | 45.36977 | 8.80508 | 4014 ft | 197 kts | 348° |
| 2026-05-04 20:40 | 45.38301 | 8.80146 | 4008 ft | 192 kts | 348° |
| 2026-05-04 20:40 | 45.39606 | 8.79789 | 4006 ft | 191 kts | 348° |
| 2026-05-04 20:40 | 45.40907 | 8.79432 | 4008 ft | 190 kts | 348° |
| 2026-05-04 20:41 | 45.42165 | 8.79088 | 4013 ft | 179 kts | 348° |
| 2026-05-04 20:41 | 45.43373 | 8.78757 | 4004 ft | 176 kts | 348° |
| 2026-05-04 20:41 | 45.44571 | 8.78428 | 3987 ft | 175 kts | 348° |
| 2026-05-04 20:41 | 45.45736 | 8.78109 | 3829 ft | 165 kts | 348° |
| 2026-05-04 20:42 | 45.46835 | 8.77807 | 3648 ft | 159 kts | 348° |
| 2026-05-04 20:42 | 45.47915 | 8.77510 | 3442 ft | 158 kts | 348° |
| 2026-05-04 20:42 | 45.48987 | 8.77216 | 3238 ft | 156 kts | 348° |
| 2026-05-04 20:42 | 45.50051 | 8.76925 | 3024 ft | 155 kts | 348° |
| 2026-05-04 20:43 | 45.51100 | 8.76649 | 2783 ft | 151 kts | 349° |
| 2026-05-04 20:43 | 45.52126 | 8.76400 | 2547 ft | 149 kts | 346° |
| 2026-05-04 20:43 | 45.53120 | 8.76052 | 2337 ft | 146 kts | 349° |
| 2026-05-04 20:43 | 45.54110 | 8.75812 | 2171 ft | 144 kts | 348° |
| 2026-05-04 20:44 | 45.55090 | 8.75549 | 2055 ft | 143 kts | 347° |
| 2026-05-04 20:44 | 45.56058 | 8.75244 | 1902 ft | 143 kts | 347° |
| 2026-05-04 20:44 | 45.57032 | 8.75002 | 1741 ft | 141 kts | 351° |
| 2026-05-04 20:44 | 45.57964 | 8.74767 | 1522 ft | 134 kts | 345° |
| 2026-05-04 20:45 | 45.58872 | 8.74490 | 1307 ft | 138 kts | 347° |
| 2026-05-04 20:45 | 45.59896 | 8.74212 | 1157 ft | 155 kts | 347° |
| 2026-05-04 20:45 | 45.60930 | 8.73929 | 910 ft | 148 kts | 346° |
| 2026-05-04 20:45 | 45.61905 | 8.73654 | 764 ft | 142 kts | 346° |
| 2026-05-04 20:46 | 45.62792 | 8.73404 | 736 ft | 115 kts | 348° |
| 2026-05-04 20:46 | 45.63424 | 8.73233 | 737 ft | 73 kts | 349° |
| 2026-05-04 20:46 | 45.63734 | 8.73065 | 739 ft | 30 kts | 319° |
| 2026-05-04 20:46 | 45.63844 | 8.72857 | 736 ft | 0 kts | 305° |
| 2026-05-04 20:47 | 45.63895 | 8.72747 | 736 ft | 24 kts | 303° |
| 2026-05-04 20:48 | 45.63951 | 8.72528 | 736 ft | 24 kts | 257° |
| 2026-05-04 20:48 | 45.63920 | 8.72294 | 736 ft | 24 kts | 261° |
| 2026-05-04 20:48 | 45.63912 | 8.72057 | 738 ft | 24 kts | 268° |
| 2026-05-04 20:48 | 45.63864 | 8.71839 | 737 ft | 22 kts | 220° |
| 2026-05-04 20:49 | 45.63715 | 8.71848 | 736 ft | 22 kts | 170° |
| 2026-05-04 20:49 | 45.63560 | 8.71889 | 737 ft | 23 kts | 168° |
| 2026-05-04 20:49 | 45.63399 | 8.71933 | 737 ft | 25 kts | 169° |
| 2026-05-04 20:49 | 45.63300 | 8.71861 | 736 ft | 19 kts | 261° |
| 2026-05-04 20:50 | 45.63266 | 8.71684 | 735 ft | 18 kts | 220° |
| 2026-05-04 20:50 | 45.63147 | 8.71692 | 736 ft | 18 kts | 169° |
| 2026-05-04 20:50 | 45.63020 | 8.71726 | 735 ft | 17 kts | 169° |
| 2026-05-04 20:50 | 45.62958 | 8.71677 | 736 ft | 12 kts | 248° |
| 2026-05-04 20:51 | 45.62947 | 8.71571 | 736 ft | 7 kts | 294° |
| 2026-05-04 20:51 | 45.62984 | 8.71549 | 736 ft | 6 kts | 343° |
| 2026-05-04 20:51 | 45.63023 | 8.71538 | 736 ft | 5 kts | 351° |
| 2026-05-04 20:51 | 45.63027 | 8.71537 | 736 ft | 0 kts | 350° |
| 2026-05-04 20:52 | 45.63024 | 8.71538 | 736 ft | 0 kts | 350° |